Time;durP1;ratioP1;P1;durP2;ratioP2;P2;SDS_P1;SDS_P2;PMS_P1;PMS_P2;Temp;Humidity;BMP_temperature;BMP_pressure;BME280_temperature;BME280_humidity;BME280_pressure;Samples;Min_cycle;Max_cycle;Signal;HPM_P1;HPM_P2
2023/10/30 04:02:32;;;;;;;1.02;0.60;;;27.50;37.10;;;;;;4978304;22;47552;-82
2023/10/30 04:04:58;;;;;;;0.40;0.20;;;27.50;37.10;;;;;;4971557;28;45783;-82
2023/10/30 04:07:24;;;;;;;0.20;0.20;;;27.50;37.10;;;;;;4955374;28;46163;-82
2023/10/30 04:09:50;;;;;;;0.30;0.20;;;27.50;37.10;;;;;;4957059;28;45296;-82
2023/10/30 04:12:20;;;;;;;0.40;0.30;;;27.50;37.10;;;;;;4966408;28;45245;-82
2023/10/30 04:14:45;;;;;;;0.45;0.30;;;27.50;37.10;;;;;;4972228;28;45361;-81
2023/10/30 04:17:14;;;;;;;0.20;0.20;;;27.50;37.10;;;;;;4917256;28;47189;-82
2023/10/30 04:19:40;;;;;;;0.38;0.25;;;27.50;37.10;;;;;;4983633;28;45150;-82
2023/10/30 04:22:06;;;;;;;0.65;0.40;;;27.50;37.10;;;;;;4944675;28;45210;-81
2023/10/30 04:24:32;;;;;;;0.20;0.20;;;27.50;37.10;;;;;;4985147;28;45228;-82
2023/10/30 04:26:58;;;;;;;0.70;0.30;;;27.50;37.10;;;;;;4965177;28;45837;-82
2023/10/30 04:29:24;;;;;;;1.80;0.20;;;27.50;37.10;;;;;;4983395;28;45541;-82
2023/10/30 04:31:49;;;;;;;0.40;0.20;;;27.50;37.10;;;;;;4976030;28;45426;-82
2023/10/30 04:34:16;;;;;;;0.40;0.20;;;27.50;37.70;;;;;;4965521;28;45819;-82
2023/10/30 04:36:41;;;;;;;0.85;0.30;;;27.50;37.10;;;;;;4947195;28;47211;-82
2023/10/30 04:39:08;;;;;;;0.67;0.33;;;27.50;37.10;;;;;;4947388;28;45536;-82
2023/10/30 04:41:34;;;;;;;0.65;0.30;;;27.40;37.00;;;;;;4982954;28;45278;-81
2023/10/30 04:44:01;;;;;;;1.17;0.20;;;27.50;37.10;;;;;;4967835;28;45207;-82
2023/10/30 04:46:30;;;;;;;0.40;0.20;;;27.50;37.10;;;;;;4959396;28;46115;-84
2023/10/30 04:48:56;;;;;;;0.60;0.20;;;27.40;37.00;;;;;;4963076;28;45328;-82
2023/10/30 04:51:21;;;;;;;0.35;0.20;;;27.40;37.00;;;;;;4983021;28;44689;-82
2023/10/30 04:53:47;;;;;;;1.30;0.30;;;27.40;37.00;;;;;;4942647;28;44982;-82
2023/10/30 04:56:14;;;;;;;0.30;0.20;;;27.40;37.00;;;;;;4950037;28;46952;-81
2023/10/30 04:58:39;;;;;;;0.25;0.22;;;27.40;37.00;;;;;;4970985;28;45502;-82
2023/10/30 05:01:09;;;;;;;0.20;0.20;;;27.40;37.00;;;;;;4965869;28;45285;-81
2023/10/30 05:03:36;;;;;;;0.17;0.17;;;27.40;37.00;;;;;;4994401;28;45492;-82
2023/10/30 05:06:02;;;;;;;0.63;0.20;;;27.40;37.00;;;;;;4968948;28;46474;-81
2023/10/30 05:08:28;;;;;;;0.43;0.25;;;27.40;37.10;;;;;;4964976;28;45868;-82
2023/10/30 05:10:54;;;;;;;0.60;0.20;;;27.40;37.00;;;;;;4976210;28;45927;-82
2023/10/30 05:13:20;;;;;;;0.80;0.30;;;27.40;37.00;;;;;;5001421;28;45604;-82
2023/10/30 05:15:46;;;;;;;0.20;0.20;;;27.40;37.00;;;;;;4985003;28;46094;-82
2023/10/30 05:18:13;;;;;;;1.85;0.30;;;27.40;37.00;;;;;;5004454;28;45320;-82
2023/10/30 05:20:39;;;;;;;0.57;0.20;;;27.40;37.00;;;;;;4962177;28;45265;-82
2023/10/30 05:23:06;;;;;;;0.38;0.20;;;27.40;37.00;;;;;;4975200;28;45785;-82
2023/10/30 05:25:32;;;;;;;0.30;0.20;;;27.30;37.00;;;;;;4987519;28;46296;-82
2023/10/30 05:27:58;;;;;;;0.68;0.20;;;27.40;37.00;;;;;;4966134;28;45607;-82
2023/10/30 05:30:24;;;;;;;0.87;0.20;;;27.40;37.00;;;;;;4964259;28;45003;-82
2023/10/30 05:32:50;;;;;;;0.50;0.30;;;27.30;36.90;;;;;;4973635;28;45062;-82
2023/10/30 05:35:15;;;;;;;0.32;0.13;;;27.30;37.00;;;;;;4967311;28;45950;-81
2023/10/30 05:37:41;;;;;;;0.93;0.13;;;27.30;36.90;;;;;;4989023;28;45281;-83
2023/10/30 05:40:09;;;;;;;1.10;0.30;;;27.30;36.90;;;;;;4972367;28;45558;-82
2023/10/30 05:42:35;;;;;;;0.40;0.25;;;27.30;36.90;;;;;;4989425;28;45522;-82
2023/10/30 05:45:01;;;;;;;0.80;0.30;;;27.30;36.90;;;;;;4988910;28;45552;-82
2023/10/30 05:47:26;;;;;;;0.20;0.20;;;27.30;37.00;;;;;;4983526;28;45494;-82
2023/10/30 05:49:52;;;;;;;0.65;0.25;;;27.30;36.90;;;;;;4947801;28;45494;-82
2023/10/30 05:52:18;;;;;;;0.90;0.30;;;27.30;36.90;;;;;;4971139;28;45877;-82
2023/10/30 05:54:44;;;;;;;0.40;0.20;;;27.30;37.00;;;;;;4954912;28;45581;-82
2023/10/30 05:57:10;;;;;;;0.40;0.30;;;27.30;36.90;;;;;;5003705;28;45543;-82
2023/10/30 05:59:36;;;;;;;0.38;0.20;;;27.30;36.90;;;;;;4957200;28;44745;-82
2023/10/30 06:02:02;;;;;;;0.45;0.20;;;27.30;36.90;;;;;;4947266;28;45730;-82
2023/10/30 06:04:28;;;;;;;0.50;0.30;;;27.30;36.90;;;;;;4959900;28;46241;-82
2023/10/30 06:06:54;;;;;;;0.43;0.27;;;27.30;36.90;;;;;;4988353;28;45301;-81
2023/10/30 06:09:20;;;;;;;0.35;0.20;;;27.30;36.90;;;;;;4992999;28;45560;-82
2023/10/30 06:11:47;;;;;;;0.22;0.20;;;27.20;36.80;;;;;;4956210;28;45458;-82
2023/10/30 06:14:13;;;;;;;0.67;0.30;;;27.20;36.80;;;;;;4992465;28;45983;-82
2023/10/30 06:16:39;;;;;;;0.33;0.30;;;27.20;36.80;;;;;;4967043;28;45675;-82
2023/10/30 06:19:07;;;;;;;0.70;0.30;;;27.20;36.80;;;;;;4991389;28;59753;-82
2023/10/30 06:21:34;;;;;;;0.30;0.28;;;27.20;36.80;;;;;;4990007;28;45733;-81
2023/10/30 06:24:00;;;;;;;1.50;0.40;;;27.20;36.80;;;;;;4990378;28;45271;-81
2023/10/30 06:26:26;;;;;;;1.25;0.40;;;27.20;36.80;;;;;;4987920;28;45363;-81
2023/10/30 06:28:52;;;;;;;0.88;0.40;;;27.20;36.80;;;;;;4972905;28;46083;-81
2023/10/30 06:31:18;;;;;;;0.70;0.30;;;27.20;36.80;;;;;;4964421;28;45166;-80
2023/10/30 06:33:44;;;;;;;0.70;0.30;;;27.20;36.80;;;;;;4976746;28;48519;-81
2023/10/30 06:36:10;;;;;;;0.50;0.35;;;27.20;36.80;;;;;;4983766;28;45044;-80
2023/10/30 06:38:37;;;;;;;0.80;0.40;;;27.20;36.80;;;;;;4955674;28;45514;-81
2023/10/30 06:41:04;;;;;;;0.80;0.60;;;27.20;36.80;;;;;;4978116;28;45260;-80
2023/10/30 06:43:30;;;;;;;0.52;0.40;;;27.20;36.80;;;;;;4971711;28;45936;-81
2023/10/30 06:46:03;;;;;;;0.40;0.40;;;27.20;36.80;;;;;;4962501;28;46220;-80
2023/10/30 06:48:30;;;;;;;0.50;0.32;;;27.20;36.80;;;;;;4991136;28;45507;-81
2023/10/30 06:50:55;;;;;;;1.65;0.50;;;27.20;36.80;;;;;;5002939;28;45495;-80
2023/10/30 06:53:24;;;;;;;1.23;0.47;;;27.10;36.80;;;;;;5003356;28;45378;-81
2023/10/30 06:55:50;;;;;;;0.40;0.40;;;27.10;36.70;;;;;;4957457;28;45618;-81
2023/10/30 06:58:16;;;;;;;1.15;0.55;;;27.10;36.70;;;;;;4970280;28;45370;-80
2023/10/30 07:00:43;;;;;;;0.50;0.40;;;27.10;36.80;;;;;;4982752;28;45468;-81
2023/10/30 07:03:09;;;;;;;0.80;0.40;;;27.10;36.80;;;;;;4986681;28;45593;-81
2023/10/30 07:05:34;;;;;;;1.27;0.60;;;27.10;36.70;;;;;;4972290;28;45246;-81
2023/10/30 07:08:03;;;;;;;0.73;0.38;;;27.10;36.70;;;;;;4991078;28;45582;-80
2023/10/30 07:10:29;;;;;;;2.25;0.40;;;27.10;36.70;;;;;;4985807;28;45507;-81
2023/10/30 07:12:55;;;;;;;0.60;0.40;;;27.10;36.70;;;;;;4989198;28;45603;-81
2023/10/30 07:15:21;;;;;;;0.60;0.40;;;27.10;36.70;;;;;;4951473;28;45540;-81
2023/10/30 07:17:47;;;;;;;0.63;0.52;;;27.10;36.80;;;;;;4961230;28;45615;-81
2023/10/30 07:20:13;;;;;;;1.27;0.50;;;27.10;36.80;;;;;;5000696;28;45546;-81
2023/10/30 07:22:39;;;;;;;0.90;0.40;;;27.10;36.80;;;;;;4964107;28;45858;-81
2023/10/30 07:25:11;;;;;;;0.70;0.50;;;27.00;36.70;;;;;;4966477;28;45404;-81
2023/10/30 07:27:37;;;;;;;1.60;0.50;;;27.00;36.70;;;;;;4988225;28;44711;-81
2023/10/30 07:30:15;;;;;;;0.68;0.52;;;27.00;36.80;;;;;;4985658;28;45165;-80
2023/10/30 07:32:42;;;;;;;0.73;0.60;;;27.00;36.80;;;;;;4970446;28;46876;-81
2023/10/30 07:35:08;;;;;;;2.13;1.10;;;27.00;36.70;;;;;;4986087;28;45348;-80
2023/10/30 07:37:35;;;;;;;0.47;0.45;;;27.00;36.70;;;;;;4984779;28;45538;-80
2023/10/30 07:40:01;;;;;;;1.40;0.60;;;27.00;36.70;;;;;;4967024;28;45778;-81
2023/10/30 07:42:27;;;;;;;0.82;0.70;;;27.00;36.70;;;;;;4960566;28;46379;-81
2023/10/30 07:44:53;;;;;;;2.10;0.80;;;27.00;36.70;;;;;;4965338;28;45416;-81
2023/10/30 07:47:18;;;;;;;1.23;0.60;;;27.00;36.70;;;;;;4974279;28;45775;-81
2023/10/30 07:49:44;;;;;;;1.47;0.63;;;27.00;36.70;;;;;;4962145;28;46232;-81
2023/10/30 07:52:10;;;;;;;1.10;0.70;;;27.00;36.70;;;;;;4967026;28;46083;-81
2023/10/30 07:54:36;;;;;;;1.13;0.60;;;27.00;36.80;;;;;;4952939;28;44974;-81
2023/10/30 07:57:02;;;;;;;0.50;0.50;;;27.00;36.80;;;;;;4972435;28;45678;-81
2023/10/30 07:59:28;;;;;;;1.33;0.70;;;27.00;36.80;;;;;;4975771;28;45283;-81
2023/10/30 08:01:53;;;;;;;1.17;0.65;;;27.00;36.80;;;;;;4966459;28;47353;-81
2023/10/30 08:04:20;;;;;;;0.82;0.60;;;27.00;36.80;;;;;;4985530;28;44758;-81
2023/10/30 08:06:47;;;;;;;1.80;0.80;;;27.00;36.80;;;;;;4980159;28;45512;-81
2023/10/30 08:09:15;;;;;;;0.82;0.63;;;27.00;36.80;;;;;;5010739;28;45504;-81
2023/10/30 08:11:42;;;;;;;0.90;0.60;;;27.00;36.80;;;;;;4999971;28;46214;-80
2023/10/30 08:14:08;;;;;;;0.88;0.60;;;27.00;36.80;;;;;;4991157;28;47065;-81
2023/10/30 08:16:36;;;;;;;0.83;0.60;;;26.90;36.80;;;;;;4972903;28;45630;-82
2023/10/30 08:19:02;;;;;;;0.95;0.70;;;27.00;36.80;;;;;;4929092;28;47045;-51
2023/10/30 08:21:28;;;;;;;1.43;0.57;;;26.90;36.80;;;;;;4986108;28;45535;-46
2023/10/30 08:23:53;;;;;;;1.20;0.70;;;26.90;36.80;;;;;;4996719;28;45281;-47
2023/10/30 08:26:19;;;;;;;1.30;0.70;;;27.00;36.90;;;;;;4987896;28;45410;-45
2023/10/30 08:28:45;;;;;;;0.70;0.50;;;26.90;36.80;;;;;;5000302;28;45622;-46
2023/10/30 08:31:11;;;;;;;3.50;0.90;;;27.00;36.90;;;;;;4971488;28;46223;-48
2023/10/30 08:33:38;;;;;;;1.13;0.68;;;26.90;36.90;;;;;;4972163;28;45025;-47
2023/10/30 08:36:04;;;;;;;1.20;0.50;;;26.90;36.90;;;;;;4969037;28;45521;-47
2023/10/30 08:38:30;;;;;;;0.63;0.57;;;27.00;36.90;;;;;;5001763;28;45227;-46
2023/10/30 08:40:55;;;;;;;0.70;0.60;;;26.90;36.80;;;;;;4991469;28;45157;-46
2023/10/30 08:43:21;;;;;;;1.00;0.63;;;26.90;36.90;;;;;;4974594;28;45751;-47
2023/10/30 08:45:47;;;;;;;1.17;0.70;;;26.90;36.90;;;;;;4974405;28;45502;-45
2023/10/30 08:48:12;;;;;;;1.07;0.80;;;26.90;36.90;;;;;;4992586;28;45482;-45
2023/10/30 08:50:38;;;;;;;1.27;0.57;;;26.90;36.80;;;;;;4960338;28;50966;-45
2023/10/30 08:53:04;;;;;;;1.20;0.50;;;26.90;36.90;;;;;;4972211;28;45523;-45
2023/10/30 08:55:29;;;;;;;0.60;0.50;;;26.90;37.50;;;;;;4947072;28;46285;-46
2023/10/30 08:57:55;;;;;;;0.45;0.40;;;26.90;36.90;;;;;;4997059;28;45072;-45
2023/10/30 09:00:20;;;;;;;1.63;0.70;;;26.90;36.90;;;;;;4988778;28;45631;-45
2023/10/30 09:02:46;;;;;;;1.02;0.60;;;26.90;36.90;;;;;;4989451;28;45770;-45
2023/10/30 09:05:11;;;;;;;2.93;0.70;;;26.90;36.90;;;;;;4989217;28;45470;-45
2023/10/30 09:07:37;;;;;;;0.80;0.60;;;26.90;36.90;;;;;;4979845;28;45328;-45
2023/10/30 09:10:03;;;;;;;1.07;0.60;;;26.90;36.90;;;;;;4984025;28;45275;-48
2023/10/30 09:12:29;;;;;;;1.07;0.60;;;26.90;37.00;;;;;;4946425;28;45088;-46
2023/10/30 09:14:54;;;;;;;0.50;0.50;;;26.90;37.00;;;;;;4995256;28;45505;-46
2023/10/30 09:17:20;;;;;;;0.80;0.50;;;26.90;37.00;;;;;;4974819;28;45351;-46
2023/10/30 09:19:46;;;;;;;0.80;0.60;;;26.90;37.00;;;;;;4967218;28;46037;-47
2023/10/30 09:22:12;;;;;;;1.57;0.50;;;26.90;37.00;;;;;;4970300;28;45267;-45
2023/10/30 09:24:37;;;;;;;0.40;0.40;;;26.90;37.00;;;;;;4962127;28;45607;-44
2023/10/30 09:27:03;;;;;;;1.13;0.63;;;26.90;37.00;;;;;;4966030;28;45721;-45
2023/10/30 09:29:28;;;;;;;1.00;0.50;;;26.90;37.00;;;;;;4972800;28;46294;-43
2023/10/30 09:31:55;;;;;;;0.60;0.50;;;26.90;37.10;;;;;;4959170;28;45567;-44
2023/10/30 09:34:21;;;;;;;0.90;0.60;;;26.90;37.10;;;;;;4976564;28;45048;-47
2023/10/30 09:36:47;;;;;;;1.03;0.50;;;26.90;37.10;;;;;;4959246;28;46504;-44
2023/10/30 09:39:12;;;;;;;0.70;0.53;;;26.80;37.00;;;;;;4976675;28;45480;-46
2023/10/30 09:41:41;;;;;;;1.07;0.50;;;26.90;37.10;;;;;;4972419;28;45169;-44
2023/10/30 09:44:09;;;;;;;0.60;0.50;;;26.90;37.10;;;;;;4977676;28;45142;-44
2023/10/30 09:46:34;;;;;;;0.80;0.60;;;26.90;37.20;;;;;;4960745;28;46129;-43
2023/10/30 09:49:00;;;;;;;0.80;0.60;;;26.80;37.10;;;;;;4967444;28;47262;-45
2023/10/30 09:51:26;;;;;;;0.70;0.40;;;26.80;37.10;;;;;;4930820;28;45172;-45
2023/10/30 09:53:53;;;;;;;0.80;0.40;;;26.80;37.10;;;;;;4976607;28;45525;-43
2023/10/30 09:56:19;;;;;;;0.68;0.50;;;26.80;37.10;;;;;;4968884;28;45735;-44
2023/10/30 09:58:44;;;;;;;0.93;0.60;;;26.80;37.10;;;;;;4971070;28;46626;-43
2023/10/30 10:01:10;;;;;;;0.80;0.50;;;26.90;37.20;;;;;;4934310;28;45483;-45
2023/10/30 10:03:35;;;;;;;1.20;0.60;;;26.80;37.10;;;;;;4971550;28;45748;-46
2023/10/30 10:06:01;;;;;;;0.90;0.60;;;26.80;37.10;;;;;;4964177;28;45941;-46
2023/10/30 10:08:27;;;;;;;0.43;0.43;;;26.80;37.20;;;;;;4970628;28;45512;-44
2023/10/30 10:11:02;;;;;;;0.70;0.50;;;26.80;37.20;;;;;;4963055;28;45676;-45
2023/10/30 10:13:32;;;;;;;0.93;0.70;;;26.80;37.20;;;;;;4962622;28;45839;-44
2023/10/30 10:15:58;;;;;;;0.60;0.50;;;26.80;37.20;;;;;;4958092;28;45838;-43
2023/10/30 10:18:28;;;;;;;0.60;0.50;;;26.90;37.30;;;;;;4984865;28;45708;-44
2023/10/30 10:20:58;;;;;;;1.00;0.70;;;26.80;37.30;;;;;;4976476;28;45352;-46
2023/10/30 10:23:24;;;;;;;0.50;0.50;;;26.80;37.20;;;;;;4992803;28;45540;-44
2023/10/30 10:25:56;;;;;;;1.33;0.65;;;26.80;37.20;;;;;;4991457;28;45840;-45
2023/10/30 10:28:25;;;;;;;0.70;0.50;;;26.80;37.30;;;;;;4993765;28;46149;-44
2023/10/30 10:30:52;;;;;;;0.70;0.53;;;26.80;37.30;;;;;;4969903;28;46002;-43
2023/10/30 10:33:20;;;;;;;0.60;0.40;;;26.80;37.30;;;;;;4970577;28;45385;-43
2023/10/30 10:35:56;;;;;;;0.63;0.52;;;26.80;37.30;;;;;;4983902;28;45767;-44
2023/10/30 10:38:22;;;;;;;0.70;0.50;;;26.80;37.30;;;;;;4998405;28;45861;-46
2023/10/30 10:40:49;;;;;;;1.00;0.60;;;26.80;37.30;;;;;;4988110;28;45723;-44
2023/10/30 10:43:18;;;;;;;0.67;0.40;;;26.80;37.30;;;;;;4985599;28;45517;-44
2023/10/30 10:45:48;;;;;;;1.83;0.60;;;26.80;37.40;;;;;;4975354;28;45360;-45
2023/10/30 10:48:14;;;;;;;0.75;0.40;;;26.80;37.40;;;;;;4982818;28;47122;-44
2023/10/30 10:50:41;;;;;;;0.77;0.50;;;26.80;37.40;;;;;;4971111;28;45481;-44
2023/10/30 10:53:07;;;;;;;0.52;0.50;;;26.80;37.40;;;;;;4995658;28;45601;-47
2023/10/30 10:55:35;;;;;;;1.20;0.50;;;26.80;37.40;;;;;;4992711;28;45341;-46
2023/10/30 10:58:44;;;;;;;1.30;0.50;;;26.80;37.40;;;;;;4987472;28;45303;-45
2023/10/30 11:01:14;;;;;;;0.90;0.60;;;26.80;37.40;;;;;;4976186;28;45641;-45
2023/10/30 11:03:40;;;;;;;0.30;0.30;;;26.80;37.50;;;;;;4973948;28;45197;-43
2023/10/30 11:06:06;;;;;;;1.00;0.50;;;26.80;37.40;;;;;;4979195;28;45372;-46
2023/10/30 11:08:45;;;;;;;1.13;0.53;;;26.80;37.40;;;;;;4960483;28;46554;-46
2023/10/30 11:11:35;;;;;;;0.65;0.40;;;26.80;37.50;;;;;;4961781;28;45383;-44
2023/10/30 11:14:05;;;;;;;0.52;0.52;;;26.80;37.50;;;;;;4978687;28;45297;-44
2023/10/30 11:16:35;;;;;;;1.13;0.60;;;26.80;37.50;;;;;;4970071;28;45660;-44
2023/10/30 11:19:01;;;;;;;0.55;0.43;;;26.80;37.50;;;;;;4976146;28;45737;-48
2023/10/30 11:21:26;;;;;;;1.00;0.50;;;26.80;37.50;;;;;;4972219;28;45681;-44
2023/10/30 11:23:57;;;;;;;0.80;0.50;;;26.80;37.50;;;;;;4991108;28;46075;-45
2023/10/30 11:26:40;;;;;;;0.77;0.52;;;26.80;37.50;;;;;;4971796;28;45794;-45
2023/10/30 11:29:10;;;;;;;0.95;0.63;;;26.80;37.60;;;;;;4984831;28;46786;-45
2023/10/30 11:32:02;;;;;;;0.50;0.40;;;26.80;37.60;;;;;;4951070;28;45507;-46
2023/10/30 11:34:34;;;;;;;1.90;0.50;;;26.70;37.50;;;;;;4986663;28;44884;-45
2023/10/30 11:37:03;;;;;;;1.10;0.40;;;26.70;37.50;;;;;;4974340;28;46821;-47
2023/10/30 11:39:35;;;;;;;1.40;0.45;;;26.80;37.60;;;;;;4986207;28;46563;-45
2023/10/30 11:42:00;;;;;;;0.70;0.40;;;26.80;37.60;;;;;;4964279;28;45118;-47
2023/10/30 11:44:30;;;;;;;0.70;0.50;;;26.80;37.60;;;;;;4985919;28;45318;-46
2023/10/30 11:46:56;;;;;;;0.90;0.50;;;26.70;37.60;;;;;;4970730;28;46436;-46
2023/10/30 11:49:35;;;;;;;1.08;0.45;;;26.80;37.70;;;;;;4959742;28;46629;-47
2023/10/30 11:52:08;;;;;;;0.53;0.40;;;26.70;37.60;;;;;;4965527;28;47047;-45
2023/10/30 11:54:34;;;;;;;1.00;0.45;;;26.70;37.60;;;;;;4971743;28;46685;-46
2023/10/30 11:57:00;;;;;;;0.52;0.40;;;26.70;37.60;;;;;;4971597;28;45802;-47
2023/10/30 11:59:30;;;;;;;0.70;0.40;;;26.70;37.60;;;;;;4992591;28;45488;-45
2023/10/30 12:01:58;;;;;;;0.60;0.50;;;26.70;37.60;;;;;;4973837;28;45449;-45
2023/10/30 12:04:25;;;;;;;0.97;0.40;;;26.80;37.70;;;;;;4985348;28;45574;-46
2023/10/30 12:06:50;;;;;;;1.65;0.47;;;26.70;37.70;;;;;;4982509;28;46544;-46
2023/10/30 12:09:16;;;;;;;0.52;0.50;;;26.70;37.70;;;;;;4988581;28;46100;-45
2023/10/30 12:11:42;;;;;;;1.70;0.40;;;26.70;37.70;;;;;;4985115;28;45359;-47
2023/10/30 12:14:08;;;;;;;0.70;0.50;;;26.70;37.70;;;;;;4968970;28;45839;-47
2023/10/30 12:16:37;;;;;;;0.73;0.50;;;26.80;37.90;;;;;;4971295;28;46121;-45
2023/10/30 12:19:03;;;;;;;0.63;0.40;;;26.80;37.80;;;;;;4981793;28;45779;-46
2023/10/30 12:21:32;;;;;;;0.90;0.40;;;26.70;37.70;;;;;;4982612;28;46502;-47
2023/10/30 12:23:59;;;;;;;0.35;0.30;;;26.70;37.70;;;;;;4992901;28;45449;-45
2023/10/30 12:26:25;;;;;;;0.57;0.55;;;26.70;37.70;;;;;;4961771;28;45481;-46
2023/10/30 12:28:50;;;;;;;1.10;0.60;;;26.70;37.70;;;;;;4969651;28;46811;-45
2023/10/30 12:31:16;;;;;;;0.50;0.30;;;26.80;37.80;;;;;;4952082;28;45925;-46
2023/10/30 12:33:42;;;;;;;0.60;0.50;;;26.80;37.80;;;;;;4989984;28;46153;-46
2023/10/30 12:36:07;;;;;;;0.43;0.40;;;26.80;37.80;;;;;;4979896;28;46735;-46
2023/10/30 12:38:33;;;;;;;0.53;0.43;;;26.80;37.80;;;;;;4970232;28;45270;-45
2023/10/30 12:41:00;;;;;;;0.60;0.40;;;26.80;37.80;;;;;;4983898;28;45209;-46
2023/10/30 12:43:26;;;;;;;0.70;0.40;;;26.80;37.90;;;;;;4978991;28;45061;-48
2023/10/30 12:45:51;;;;;;;0.53;0.40;;;26.80;37.80;;;;;;4976710;28;46075;-48
2023/10/30 12:48:17;;;;;;;0.63;0.47;;;26.80;37.90;;;;;;4964759;28;45629;-46
2023/10/30 12:50:42;;;;;;;0.90;0.40;;;26.80;37.90;;;;;;4983699;28;46452;-46
2023/10/30 12:53:08;;;;;;;1.02;0.40;;;26.80;37.90;;;;;;4988021;28;46145;-47
2023/10/30 12:55:34;;;;;;;0.63;0.40;;;26.70;37.80;;;;;;4988038;28;44792;-46
2023/10/30 12:57:59;;;;;;;0.90;0.50;;;26.70;37.90;;;;;;4995283;28;46663;-46
2023/10/30 13:00:25;;;;;;;0.90;0.43;;;26.70;37.80;;;;;;4976417;28;46107;-46
2023/10/30 13:02:50;;;;;;;0.40;0.40;;;26.80;37.90;;;;;;4976926;28;45344;-46
2023/10/30 13:05:16;;;;;;;0.53;0.40;;;26.70;37.90;;;;;;4972271;28;45684;-46
2023/10/30 13:07:42;;;;;;;0.70;0.40;;;26.70;37.90;;;;;;4984187;28;46132;-48
2023/10/30 13:10:08;;;;;;;0.70;0.43;;;26.80;38.00;;;;;;4979906;28;46349;-47
2023/10/30 13:12:33;;;;;;;0.40;0.37;;;26.70;37.90;;;;;;4978499;28;45412;-47
2023/10/30 13:14:59;;;;;;;0.90;0.50;;;26.70;37.90;;;;;;4991560;28;45367;-45
2023/10/30 13:17:24;;;;;;;0.70;0.40;;;26.70;37.90;;;;;;4966657;28;45459;-46
2023/10/30 13:19:50;;;;;;;0.70;0.50;;;26.70;37.90;;;;;;4974191;28;45363;-47
2023/10/30 13:22:16;;;;;;;0.40;0.40;;;26.80;38.00;;;;;;4935759;28;45088;-46
2023/10/30 13:24:42;;;;;;;0.50;0.30;;;26.80;38.10;;;;;;4970524;28;45914;-45
2023/10/30 13:27:07;;;;;;;1.17;0.40;;;26.80;38.10;;;;;;4960945;28;46673;-49
2023/10/30 13:29:34;;;;;;;0.70;0.40;;;26.70;38.00;;;;;;4955770;28;45301;-44
2023/10/30 13:32:00;;;;;;;0.60;0.40;;;26.70;38.00;;;;;;4953070;28;45459;-45
2023/10/30 13:34:25;;;;;;;0.70;0.50;;;26.70;38.00;;;;;;4967215;28;45942;-46
2023/10/30 13:36:51;;;;;;;0.88;0.40;;;26.70;38.00;;;;;;4963249;28;45738;-45
2023/10/30 13:39:16;;;;;;;0.67;0.40;;;26.70;38.00;;;;;;4964658;28;45783;-45
2023/10/30 13:41:44;;;;;;;0.80;0.40;;;26.70;38.00;;;;;;4965540;28;45674;-46
2023/10/30 13:44:09;;;;;;;0.60;0.40;;;26.70;38.00;;;;;;4941256;28;45773;-46
2023/10/30 13:46:35;;;;;;;0.35;0.30;;;26.70;38.00;;;;;;4952209;28;45297;-45
2023/10/30 13:49:00;;;;;;;0.47;0.40;;;26.70;38.10;;;;;;4967147;28;45636;-47
2023/10/30 13:51:26;;;;;;;0.70;0.33;;;26.70;38.00;;;;;;4960061;28;46134;-45
2023/10/30 13:53:53;;;;;;;1.97;0.47;;;26.70;38.10;;;;;;4967017;28;47165;-46
2023/10/30 13:56:20;;;;;;;0.52;0.40;;;26.70;38.10;;;;;;4953723;28;46902;-46
2023/10/30 13:58:48;;;;;;;0.95;0.40;;;26.70;38.10;;;;;;4965960;28;45727;-45
2023/10/30 14:01:13;;;;;;;0.38;0.30;;;26.70;38.10;;;;;;4942131;28;45697;-45
2023/10/30 14:03:39;;;;;;;1.58;0.50;;;26.70;38.10;;;;;;4959602;28;46672;-46
2023/10/30 14:06:05;;;;;;;0.77;0.40;;;26.70;38.10;;;;;;4949148;28;45897;-46
2023/10/30 14:08:30;;;;;;;0.33;0.30;;;26.70;38.10;;;;;;4949677;28;46039;-46
2023/10/30 14:10:56;;;;;;;0.40;0.30;;;26.70;38.20;;;;;;4956596;28;46320;-46
2023/10/30 14:13:21;;;;;;;0.53;0.40;;;26.70;38.20;;;;;;4956901;28;46559;-46
2023/10/30 14:15:47;;;;;;;0.47;0.30;;;26.70;38.20;;;;;;4945639;28;45533;-45
2023/10/30 14:18:12;;;;;;;0.70;0.50;;;26.70;38.30;;;;;;4955592;28;44861;-45
2023/10/30 14:20:38;;;;;;;0.50;0.40;;;26.70;38.20;;;;;;4943856;28;46357;-46
2023/10/30 14:23:03;;;;;;;0.30;0.30;;;26.70;38.20;;;;;;4963707;28;45914;-45
2023/10/30 14:25:29;;;;;;;0.60;0.40;;;26.70;38.20;;;;;;4956249;28;45886;-46
2023/10/30 14:27:54;;;;;;;0.43;0.30;;;26.70;38.30;;;;;;4971908;28;45426;-45
2023/10/30 14:30:20;;;;;;;0.73;0.40;;;26.70;38.30;;;;;;4951736;28;45306;-50
2023/10/30 14:32:45;;;;;;;0.90;0.50;;;26.70;38.30;;;;;;4962805;28;45859;-45
2023/10/30 14:35:11;;;;;;;0.50;0.30;;;26.70;38.30;;;;;;4941888;28;45925;-47
2023/10/30 14:37:36;;;;;;;1.00;0.43;;;26.70;38.30;;;;;;4961969;28;46580;-45
2023/10/30 14:40:07;;;;;;;0.60;0.40;;;26.70;38.30;;;;;;4970481;28;46768;-48
2023/10/30 14:42:33;;;;;;;0.45;0.40;;;26.70;38.30;;;;;;4967088;28;45261;-45
2023/10/30 14:44:58;;;;;;;0.80;0.40;;;26.60;38.20;;;;;;4970806;28;46424;-46
2023/10/30 14:47:24;;;;;;;0.90;0.60;;;26.70;38.30;;;;;;4946311;28;44744;-45
2023/10/30 14:49:49;;;;;;;0.60;0.40;;;26.60;38.20;;;;;;4968101;28;45384;-45
2023/10/30 14:52:15;;;;;;;0.73;0.40;;;26.70;38.30;;;;;;4927052;28;45825;-46
2023/10/30 14:54:40;;;;;;;0.30;0.30;;;26.70;38.30;;;;;;4969635;28;46049;-45
2023/10/30 14:57:06;;;;;;;0.90;0.40;;;26.60;38.30;;;;;;4961957;28;45513;-47
2023/10/30 14:59:31;;;;;;;0.47;0.40;;;26.60;38.30;;;;;;4967933;28;45245;-45
2023/10/30 15:01:57;;;;;;;0.47;0.40;;;26.60;38.30;;;;;;4945853;28;45488;-45
2023/10/30 15:04:22;;;;;;;0.60;0.47;;;26.60;38.30;;;;;;4961947;28;46232;-47
2023/10/30 15:06:48;;;;;;;1.58;0.45;;;26.60;38.30;;;;;;4948371;28;45344;-46
2023/10/30 15:09:16;;;;;;;0.82;0.30;;;26.60;38.30;;;;;;4960978;28;45938;-47
2023/10/30 15:11:42;;;;;;;0.77;0.40;;;26.60;38.30;;;;;;4956331;28;45074;-45
2023/10/30 15:14:08;;;;;;;0.50;0.30;;;26.60;38.30;;;;;;4952044;28;46512;-44
2023/10/30 15:16:33;;;;;;;0.50;0.30;;;26.60;38.30;;;;;;4946510;28;46580;-45
2023/10/30 15:18:59;;;;;;;0.80;0.40;;;26.60;38.40;;;;;;4967486;28;45299;-46
2023/10/30 15:21:25;;;;;;;0.70;0.40;;;26.60;38.40;;;;;;4959276;28;45294;-45
2023/10/30 15:23:51;;;;;;;0.67;0.50;;;26.60;38.40;;;;;;4968595;28;45823;-46
2023/10/30 15:26:16;;;;;;;0.83;0.33;;;26.60;38.40;;;;;;4919637;28;45234;-44
2023/10/30 15:28:42;;;;;;;0.50;0.40;;;26.60;38.40;;;;;;4965586;28;45208;-44
2023/10/30 15:31:07;;;;;;;0.70;0.43;;;26.60;38.40;;;;;;4950546;28;45610;-43
2023/10/30 15:33:33;;;;;;;0.60;0.40;;;26.60;38.40;;;;;;4963371;28;45657;-43
2023/10/30 15:35:58;;;;;;;0.83;0.37;;;26.60;38.40;;;;;;4962868;28;46670;-47
2023/10/30 15:38:25;;;;;;;0.63;0.30;;;26.60;38.50;;;;;;4959015;28;45032;-48
2023/10/30 15:40:51;;;;;;;0.20;0.20;;;26.60;38.40;;;;;;4941593;28;46387;-44
2023/10/30 15:43:16;;;;;;;0.30;0.30;;;26.60;38.50;;;;;;4971931;28;45392;-43
2023/10/30 15:45:43;;;;;;;1.50;0.40;;;26.60;38.50;;;;;;4933638;28;48257;-44
2023/10/30 15:48:08;;;;;;;1.50;0.35;;;26.50;38.50;;;;;;4959552;28;45894;-47
2023/10/30 15:50:36;;;;;;;1.27;0.40;;;26.50;38.40;;;;;;4954143;28;45385;-44
2023/10/30 15:53:02;;;;;;;1.30;0.60;;;26.60;38.50;;;;;;4970644;28;45652;-46
2023/10/30 15:55:28;;;;;;;0.60;0.40;;;26.50;38.40;;;;;;4959856;28;45878;-47
2023/10/30 15:57:53;;;;;;;0.40;0.40;;;26.50;38.50;;;;;;4972037;28;45386;-46
2023/10/30 16:00:21;;;;;;;0.63;0.40;;;26.50;38.40;;;;;;4956142;28;45660;-46
2023/10/30 16:02:46;;;;;;;0.80;0.50;;;26.60;38.50;;;;;;4961532;28;46233;-47
2023/10/30 16:05:12;;;;;;;1.10;0.50;;;26.60;38.50;;;;;;4938024;28;45885;-44
2023/10/30 16:07:37;;;;;;;0.60;0.50;;;26.60;38.60;;;;;;4952308;28;46414;-43
2023/10/30 16:10:05;;;;;;;0.60;0.50;;;26.60;38.50;;;;;;4969520;28;45301;-45
2023/10/30 16:12:31;;;;;;;0.70;0.40;;;26.50;38.50;;;;;;4956288;28;46397;-46
2023/10/30 16:14:56;;;;;;;0.40;0.40;;;26.50;38.60;;;;;;4971154;28;46353;-47
2023/10/30 16:17:22;;;;;;;1.60;0.52;;;26.50;38.50;;;;;;4957929;28;45856;-46
2023/10/30 16:19:48;;;;;;;0.40;0.40;;;26.50;38.50;;;;;;4981436;28;45707;-46
2023/10/30 16:22:14;;;;;;;0.80;0.40;;;26.50;38.60;;;;;;4975787;28;47035;-46
2023/10/30 16:24:39;;;;;;;1.43;0.60;;;26.50;38.60;;;;;;4958011;28;46000;-46
2023/10/30 16:27:05;;;;;;;0.57;0.40;;;26.50;38.50;;;;;;4973681;28;45466;-43
2023/10/30 16:29:31;;;;;;;0.47;0.40;;;26.50;38.60;;;;;;4987285;28;46432;-47
2023/10/30 16:31:56;;;;;;;0.63;0.40;;;26.50;38.60;;;;;;4953069;28;46164;-46
2023/10/30 16:34:22;;;;;;;0.60;0.57;;;26.50;38.60;;;;;;4983929;28;45736;-48
2023/10/30 16:36:47;;;;;;;1.20;0.50;;;26.50;38.60;;;;;;4955053;28;45849;-45
2023/10/30 16:39:13;;;;;;;0.40;0.40;;;26.50;38.60;;;;;;4987511;28;45354;-46
2023/10/30 16:41:38;;;;;;;1.20;0.53;;;26.50;38.60;;;;;;4973727;28;45775;-45
2023/10/30 16:44:04;;;;;;;1.10;0.60;;;26.50;38.60;;;;;;4970457;28;46541;-46
2023/10/30 16:46:30;;;;;;;0.45;0.40;;;26.50;38.60;;;;;;4973959;28;46191;-46